首页
METAR-TAF:

METAR-TAF

机场 :

Newberry, 密歇根州, 美国

纬度: 46-18-40N, 经度: 085-27-26W, 海拔: 265米

当前天气观测

该预报发布于12分钟前的12:55 UTC
静风
温度 1°C
湿度 93%
气压 1006 hPa
能見度: 2.8公里
阴天层高于900英尺
轻雾

METAR: KERY 191255Z AUTO 00000KT 1 3/4SM BR OVC009 01/00 A2972 RMK AO2 T00130001

时间: 08:07 (13:07 UTC)


TAF: 丢失

超过4000个机场的气象观测和天气预报(METAR&TAF报告)。

可查询的气象台以黄色和红色小点在地图上表示。

将鼠标移到小点上方,可查看气象台名称。

然后点击查看天气观测和预报。

如需切换地图:点击带黑十字的绿色按钮放大地图;点击带横线的绿色按钮缩小地图;或者点击绿色箭头查看邻近地区的地图。


METAR-TAF: